Time;durP1;ratioP1;P1;durP2;ratioP2;P2;SDS_P1;SDS_P2;PMS_P1;PMS_P2;Temp;Humidity;BMP_temperature;BMP_pressure;BME280_temperature;BME280_humidity;BME280_pressure;Samples;Min_cycle;Max_cycle;Signal;HPM_P1;HPM_P2
2021/07/27 00:00:10;;;;;;;15.27;9.60;;;;;;;13.97;100.00;96146.53;1032035;28;20105;-52
2021/07/27 00:00:42;;;;;;;16.35;9.00;;;;;;;14.00;100.00;96136.59;1031930;28;20023;-53
2021/07/27 00:01:13;;;;;;;15.85;9.05;;;;;;;13.99;100.00;96127.00;1032074;28;20097;-53
2021/07/27 00:01:43;;;;;;;14.85;8.93;;;;;;;14.02;100.00;96141.75;1032063;28;20033;-53
2021/07/27 00:02:14;;;;;;;15.88;9.40;;;;;;;14.02;100.00;96139.13;1032003;28;20499;-54
2021/07/27 00:02:45;;;;;;;16.35;9.70;;;;;;;14.01;100.00;96142.69;1032031;28;20021;-53
2021/07/27 00:03:15;;;;;;;14.88;9.10;;;;;;;14.00;100.00;96133.09;1032181;28;20030;-54
2021/07/27 00:03:47;;;;;;;11.93;8.68;;;;;;;13.98;100.00;96137.66;1031457;28;20383;-53
2021/07/27 00:04:17;;;;;;;18.60;8.82;;;;;;;14.02;100.00;96141.75;1032049;28;20083;-51
2021/07/27 00:04:48;;;;;;;15.77;8.90;;;;;;;14.05;100.00;96136.22;1032022;28;20423;-52
2021/07/27 00:05:19;;;;;;;15.93;9.18;;;;;;;14.04;100.00;96137.19;1032066;28;20062;-52
2021/07/27 00:05:52;;;;;;;20.02;8.80;;;;;;;14.03;100.00;96138.13;1032131;28;20022;-53
2021/07/27 00:06:22;;;;;;;13.15;8.63;;;;;;;14.05;100.00;96138.03;1032020;28;20357;-53
2021/07/27 00:06:53;;;;;;;12.75;8.75;;;;;;;14.04;100.00;96144.22;1032117;28;20042;-53
2021/07/27 00:07:24;;;;;;;13.15;9.15;;;;;;;14.04;100.00;96141.59;1032048;28;20022;-53
2021/07/27 00:07:54;;;;;;;12.23;7.95;;;;;;;14.04;100.00;96146.88;1032175;28;20022;-53
2021/07/27 00:08:25;;;;;;;17.02;9.77;;;;;;;14.00;100.00;96143.66;1031935;28;20511;-52
2021/07/27 00:08:58;;;;;;;16.95;8.63;;;;;;;13.99;100.00;96149.88;1032015;28;20068;-53
2021/07/27 00:09:29;;;;;;;17.27;8.75;;;;;;;14.02;100.00;96147.03;1032041;28;20088;-53
2021/07/27 00:09:59;;;;;;;17.70;9.40;;;;;;;14.04;100.00;96142.47;1032089;28;20046;-53
2021/07/27 00:10:30;;;;;;;18.02;9.23;;;;;;;14.03;100.00;96139.94;1032020;28;20024;-53
2021/07/27 00:11:02;;;;;;;16.27;8.27;;;;;;;14.08;100.00;96135.97;1031967;28;20547;-53
2021/07/27 00:11:33;;;;;;;22.67;8.98;;;;;;;14.09;100.00;96136.81;1032033;28;20026;-53
2021/07/27 00:12:05;;;;;;;13.65;8.82;;;;;;;14.12;100.00;96137.38;1032019;28;20023;-52
2021/07/27 00:12:35;;;;;;;14.15;8.35;;;;;;;14.11;100.00;96140.16;1031921;28;20034;-52
2021/07/27 00:13:06;;;;;;;19.50;9.45;;;;;;;14.12;100.00;96139.19;1031960;28;20061;-52
2021/07/27 00:13:37;;;;;;;15.30;9.35;;;;;;;14.08;100.00;96141.25;1031398;28;20049;-51
2021/07/27 00:14:08;;;;;;;14.35;9.35;;;;;;;14.06;100.00;96137.91;1032003;28;20019;-52
2021/07/27 00:14:39;;;;;;;15.82;8.65;;;;;;;14.06;100.00;96145.81;1031537;28;20027;-53
2021/07/27 00:15:11;;;;;;;16.40;9.48;;;;;;;14.07;100.00;96144.81;1031875;28;20030;-53
2021/07/27 00:15:42;;;;;;;19.17;10.30;;;;;;;14.12;100.00;96147.09;1032090;28;20014;-53
2021/07/27 00:16:13;;;;;;;12.93;9.00;;;;;;;14.13;100.00;96144.34;1031987;28;20022;-53
2021/07/27 00:16:44;;;;;;;20.17;9.80;;;;;;;14.14;100.00;96146.00;1031938;28;20018;-53
2021/07/27 00:17:14;;;;;;;16.60;9.82;;;;;;;14.17;100.00;96151.03;1031931;28;20022;-52
2021/07/27 00:17:45;;;;;;;15.60;9.82;;;;;;;14.20;100.00;96150.75;1032086;28;20014;-52
2021/07/27 00:18:16;;;;;;;18.05;9.23;;;;;;;14.23;100.00;96148.84;1032033;28;20469;-50
2021/07/27 00:18:46;;;;;;;19.27;9.20;;;;;;;14.23;100.00;96149.69;1032041;28;20069;-53
2021/07/27 00:19:17;;;;;;;16.15;9.38;;;;;;;14.24;100.00;96145.25;1031912;28;20020;-53
2021/07/27 00:19:48;;;;;;;20.40;9.23;;;;;;;14.22;100.00;96153.28;1032014;28;20013;-53
2021/07/27 00:20:18;;;;;;;18.35;9.57;;;;;;;14.23;100.00;96151.47;1032053;28;20042;-53
2021/07/27 00:20:49;;;;;;;14.23;9.10;;;;;;;14.22;100.00;96148.00;1031994;28;20030;-53
2021/07/27 00:21:20;;;;;;;18.95;9.55;;;;;;;14.29;100.00;96153.63;1032006;28;20093;-52
2021/07/27 00:21:50;;;;;;;16.13;10.15;;;;;;;14.25;100.00;96149.56;1032054;28;20053;-54
2021/07/27 00:22:21;;;;;;;17.55;9.20;;;;;;;14.23;100.00;96144.44;1031932;28;20428;-53
2021/07/27 00:22:52;;;;;;;16.38;9.60;;;;;;;14.29;100.00;96148.34;1031976;28;20025;-52
2021/07/27 00:23:23;;;;;;;17.73;9.90;;;;;;;14.26;100.00;96149.44;1031826;28;20025;-53
2021/07/27 00:23:53;;;;;;;17.13;9.30;;;;;;;14.32;100.00;96145.44;1031521;28;20026;-53
2021/07/27 00:24:26;;;;;;;18.85;10.18;;;;;;;14.30;100.00;96148.25;1031914;28;20659;-53
2021/07/27 00:24:58;;;;;;;13.23;9.27;;;;;;;14.36;100.00;96145.09;1032060;28;20015;-52
2021/07/27 00:25:29;;;;;;;16.02;8.73;;;;;;;14.30;100.00;96147.38;1031894;28;20089;-53
2021/07/27 00:25:59;;;;;;;12.25;8.45;;;;;;;14.32;100.00;96148.09;1030633;28;20011;-53
2021/07/27 00:26:30;;;;;;;14.73;8.13;;;;;;;14.32;100.00;96153.34;1031913;28;20543;-53
2021/07/27 00:27:01;;;;;;;15.30;9.10;;;;;;;14.30;100.00;96147.38;1032065;28;20018;-53
2021/07/27 00:27:34;;;;;;;14.40;8.52;;;;;;;14.29;100.00;96145.72;1032019;28;20476;-53
2021/07/27 00:28:06;;;;;;;12.00;8.30;;;;;;;14.26;100.00;96144.16;1031879;28;20439;-54
2021/07/27 00:28:36;;;;;;;16.63;8.82;;;;;;;14.25;100.00;96150.41;1031836;28;20022;-51
2021/07/27 00:29:07;;;;;;;18.35;9.88;;;;;;;14.25;100.00;96150.41;1032034;28;20032;-54
2021/07/27 00:29:38;;;;;;;14.02;8.45;;;;;;;14.27;100.00;96150.28;1032074;28;20522;-52
2021/07/27 00:30:09;;;;;;;12.10;8.02;;;;;;;14.27;100.00;96152.94;1031950;28;20018;-53
2021/07/27 00:30:40;;;;;;;14.32;8.45;;;;;;;14.27;100.00;96152.94;1031927;28;20040;-53
2021/07/27 00:31:19;;;;;;;16.98;9.05;;;;;;;14.26;100.00;96144.16;1031899;28;20022;-52
2021/07/27 00:31:49;;;;;;;17.55;8.27;;;;;;;14.29;100.00;96148.34;1031973;28;20014;-53
2021/07/27 00:32:20;;;;;;;17.30;8.23;;;;;;;14.28;100.00;96149.31;1031922;28;20014;-53
2021/07/27 00:32:51;;;;;;;12.30;8.13;;;;;;;14.31;100.00;96149.06;1031656;28;20022;-53
2021/07/27 00:33:21;;;;;;;15.18;9.20;;;;;;;14.32;100.00;96148.94;1031971;28;20473;-52
2021/07/27 00:33:52;;;;;;;15.32;9.40;;;;;;;14.30;100.00;96142.97;1031356;28;20046;-53
2021/07/27 00:34:23;;;;;;;15.05;8.63;;;;;;;14.32;100.00;96143.69;1031820;28;20029;-53
2021/07/27 00:34:54;;;;;;;14.70;8.30;;;;;;;14.34;100.00;96144.38;1031799;28;20053;-53
2021/07/27 00:35:25;;;;;;;13.05;8.23;;;;;;;14.29;100.00;96145.72;1032046;28;20014;-53
2021/07/27 00:35:56;;;;;;;19.02;8.88;;;;;;;14.25;100.00;96149.56;1031927;28;20048;-53
2021/07/27 00:36:26;;;;;;;19.15;10.15;;;;;;;14.31;100.00;96141.16;1031871;28;20026;-53
2021/07/27 00:36:57;;;;;;;15.70;9.27;;;;;;;14.33;100.00;96141.88;1031927;28;20440;-52
2021/07/27 00:37:29;;;;;;;17.73;8.50;;;;;;;14.29;100.00;96137.81;1032067;28;20023;-52
2021/07/27 00:38:41;;;;;;;16.77;8.20;;;;;;;14.30;100.00;96136.84;1031997;28;20473;-53
2021/07/27 00:39:12;;;;;;;13.55;7.70;;;;;;;14.34;100.00;96138.25;1031948;28;20025;-53
2021/07/27 00:39:43;;;;;;;21.00;9.00;;;;;;;14.35;100.00;96135.50;1032076;28;20473;-53
2021/07/27 00:40:14;;;;;;;14.43;8.02;;;;;;;14.34;100.00;96135.63;1031779;28;20018;-53
2021/07/27 00:40:45;;;;;;;13.52;8.40;;;;;;;14.28;100.00;96133.50;1031921;28;20026;-57
2021/07/27 00:41:16;;;;;;;11.43;8.30;;;;;;;14.24;100.00;96129.44;1031932;28;20022;-54
2021/07/27 00:41:47;;;;;;;12.15;8.45;;;;;;;14.18;100.00;96130.78;1032072;28;20014;-53
2021/07/27 00:42:18;;;;;;;15.13;7.68;;;;;;;14.20;100.00;96131.50;1031827;28;20046;-54
2021/07/27 00:42:49;;;;;;;16.63;8.85;;;;;;;14.19;100.00;96128.03;1031965;28;20027;-53
2021/07/27 00:43:20;;;;;;;17.33;10.10;;;;;;;14.21;100.00;96130.53;1031961;28;20026;-53
2021/07/27 00:43:51;;;;;;;20.83;9.40;;;;;;;14.19;100.00;96128.03;1031370;28;20484;-53
2021/07/27 00:44:21;;;;;;;18.17;8.98;;;;;;;14.20;100.00;96124.41;1031833;28;20025;-53
2021/07/27 00:44:53;;;;;;;13.73;9.07;;;;;;;14.15;100.00;96129.25;1031901;28;20015;-54
2021/07/27 00:45:23;;;;;;;18.08;10.32;;;;;;;14.12;100.00;96126.84;1031904;28;20064;-53
2021/07/27 00:45:54;;;;;;;14.00;9.18;;;;;;;14.16;100.00;96125.63;1031927;28;20084;-52
2021/07/27 00:46:25;;;;;;;17.73;9.15;;;;;;;14.16;100.00;96122.16;1031863;28;20018;-53
2021/07/27 00:46:55;;;;;;;13.73;8.82;;;;;;;14.11;100.00;96125.16;1031841;28;20029;-54
2021/07/27 00:47:26;;;;;;;18.73;9.30;;;;;;;14.10;100.00;96120.88;1032001;28;20022;-53
2021/07/27 00:47:57;;;;;;;14.50;9.18;;;;;;;14.07;100.00;96126.38;1031954;28;20021;-52
2021/07/27 00:48:27;;;;;;;15.82;8.18;;;;;;;14.12;100.00;96126.03;1031893;28;20046;-53
2021/07/27 00:49:00;;;;;;;15.35;8.38;;;;;;;14.14;100.00;96129.38;1027498;28;20046;-52
2021/07/27 00:49:31;;;;;;;13.93;8.15;;;;;;;14.11;100.00;96133.06;1027586;28;20022;-53
2021/07/27 00:50:02;;;;;;;15.70;8.70;;;;;;;14.10;100.00;96120.88;1027693;28;20011;-53
2021/07/27 00:50:33;;;;;;;21.48;8.10;;;;;;;14.15;100.00;96123.97;1028273;28;20119;-53
2021/07/27 00:51:04;;;;;;;11.38;7.93;;;;;;;14.17;100.00;96124.69;1031884;28;20046;-53
2021/07/27 00:51:35;;;;;;;14.68;7.90;;;;;;;14.18;100.00;96122.88;1032023;28;20014;-53
2021/07/27 00:52:06;;;;;;;15.98;7.75;;;;;;;14.14;100.00;96124.94;1032022;28;20098;-54
2021/07/27 00:52:38;;;;;;;14.15;8.25;;;;;;;14.10;100.00;96123.50;1031679;28;20022;-52
2021/07/27 00:53:09;;;;;;;15.60;8.65;;;;;;;14.08;100.00;96125.44;1031856;28;20434;-53
2021/07/27 00:53:40;;;;;;;13.38;8.10;;;;;;;14.09;100.00;96121.00;1030956;28;20014;-53
2021/07/27 00:54:11;;;;;;;11.48;8.27;;;;;;;14.12;100.00;96126.03;1031725;28;20125;-53
2021/07/27 00:54:42;;;;;;;15.23;8.00;;;;;;;14.09;100.00;96126.25;1031504;28;20054;-54
2021/07/27 00:55:13;;;;;;;17.48;8.63;;;;;;;14.05;100.00;96125.69;1031608;28;20354;-53
2021/07/27 00:55:44;;;;;;;14.88;7.95;;;;;;;14.09;100.00;96124.47;1027602;28;20050;-53
2021/07/27 00:56:15;;;;;;;11.98;8.27;;;;;;;14.09;100.00;96124.47;1027812;28;20031;-53
2021/07/27 00:56:45;;;;;;;15.63;7.90;;;;;;;14.10;100.00;96123.50;1027553;28;20015;-52
2021/07/27 00:57:16;;;;;;;16.65;8.13;;;;;;;14.11;100.00;96119.91;1027948;28;20011;-52
2021/07/27 00:57:47;;;;;;;12.30;8.07;;;;;;;14.14;100.00;96121.47;1031956;28;20038;-52
2021/07/27 00:58:18;;;;;;;10.80;7.38;;;;;;;14.16;100.00;96122.16;1031969;28;20018;-54
2021/07/27 00:58:49;;;;;;;11.65;7.82;;;;;;;14.13;100.00;96122.41;1031857;28;20074;-52
2021/07/27 00:59:20;;;;;;;13.65;8.20;;;;;;;14.12;100.00;96123.38;1031751;28;20022;-52
2021/07/27 00:59:50;;;;;;;15.35;7.95;;;;;;;14.10;100.00;96120.88;1031988;28;20023;-53
2021/07/27 01:00:23;;;;;;;16.52;8.77;;;;;;;14.12;100.00;96121.59;1031953;28;20419;-52
2021/07/27 01:00:53;;;;;;;16.77;8.50;;;;;;;14.14;100.00;96113.56;1031798;28;20030;-53
2021/07/27 01:01:24;;;;;;;11.73;8.63;;;;;;;14.13;100.00;96122.41;1031818;28;20007;-53
2021/07/27 01:01:55;;;;;;;16.10;9.05;;;;;;;14.15;100.00;96120.47;1031934;28;20109;-52
2021/07/27 01:02:26;;;;;;;13.00;8.80;;;;;;;14.16;100.00;96116.91;1031884;28;20019;-52
2021/07/27 01:02:57;;;;;;;17.33;7.82;;;;;;;14.18;100.00;96114.97;1031828;28;20017;-52
2021/07/27 01:03:28;;;;;;;15.05;8.18;;;;;;;14.16;100.00;96123.00;1031561;28;20014;-53
2021/07/27 01:03:59;;;;;;;16.77;8.43;;;;;;;14.12;100.00;96118.13;1031597;28;20011;-54
2021/07/27 01:04:29;;;;;;;15.93;8.65;;;;;;;14.12;100.00;96121.59;1031995;28;20015;-53
2021/07/27 01:05:00;;;;;;;12.90;8.25;;;;;;;14.11;100.00;96124.34;1031954;28;20431;-53
2021/07/27 01:05:31;;;;;;;14.40;8.38;;;;;;;14.12;100.00;96123.38;1031785;28;20025;-53
2021/07/27 01:06:02;;;;;;;15.10;9.50;;;;;;;14.10;100.00;96122.69;1031893;28;20065;-53
2021/07/27 01:06:32;;;;;;;17.95;8.90;;;;;;;14.10;100.00;96123.50;1031883;28;20038;-53
2021/07/27 01:07:03;;;;;;;13.85;8.75;;;;;;;14.11;100.00;96127.78;1031879;28;20027;-53
2021/07/27 01:07:34;;;;;;;13.88;9.57;;;;;;;14.09;100.00;96124.47;1031830;28;20032;-52
2021/07/27 01:08:05;;;;;;;13.63;8.90;;;;;;;14.09;100.00;96121.81;1031947;28;20018;-54
2021/07/27 01:08:36;;;;;;;17.10;8.77;;;;;;;14.10;100.00;96123.50;1031960;28;20033;-53
2021/07/27 01:09:07;;;;;;;17.13;8.70;;;;;;;14.09;100.00;96123.63;1031761;28;20077;-53
2021/07/27 01:09:37;;;;;;;12.70;8.23;;;;;;;14.11;100.00;96127.78;1031825;28;20097;-53
2021/07/27 01:10:11;;;;;;;15.38;8.10;;;;;;;14.13;100.00;96127.69;1031936;28;20030;-53
2021/07/27 01:10:46;;;;;;;19.88;8.32;;;;;;;14.07;100.00;96121.13;1031923;28;20010;-53
2021/07/27 01:11:24;;;;;;;13.27;8.18;;;;;;;14.05;100.00;96133.56;1031861;28;20021;-53
2021/07/27 01:11:59;;;;;;;12.82;9.05;;;;;;;14.06;100.00;96135.25;1031969;28;20388;-53
2021/07/27 01:12:31;;;;;;;17.10;9.07;;;;;;;14.06;100.00;96130.00;1031768;28;20029;-53
2021/07/27 01:13:03;;;;;;;17.85;9.73;;;;;;;14.02;100.00;96133.84;1031800;28;20065;-52
2021/07/27 01:13:34;;;;;;;24.63;9.50;;;;;;;14.02;100.00;96133.00;1031267;28;20014;-53
2021/07/27 01:14:05;;;;;;;16.38;9.05;;;;;;;14.04;100.00;96134.56;1031684;28;20045;-53
2021/07/27 01:14:36;;;;;;;16.80;8.93;;;;;;;14.03;100.00;96132.88;1031791;28;20233;-53
2021/07/27 01:15:08;;;;;;;12.93;9.27;;;;;;;14.00;100.00;96130.47;1031859;28;20018;-53
2021/07/27 01:15:38;;;;;;;13.77;9.45;;;;;;;13.99;100.00;96134.09;1031790;28;20108;-53
2021/07/27 01:16:10;;;;;;;14.95;8.60;;;;;;;13.96;100.00;96132.53;1031806;28;20084;-53
2021/07/27 01:16:41;;;;;;;13.80;9.45;;;;;;;13.98;100.00;96128.00;1031824;28;20048;-53
2021/07/27 01:17:12;;;;;;;15.57;8.65;;;;;;;13.93;100.00;96118.78;1031905;28;20019;-53
2021/07/27 01:17:44;;;;;;;19.38;9.10;;;;;;;14.00;100.00;96127.84;1031709;28;20030;-53
2021/07/27 01:18:21;;;;;;;21.35;9.60;;;;;;;14.00;100.00;96126.06;1031925;28;20028;-53
2021/07/27 01:19:44;;;;;;;14.43;9.13;;;;;;;14.01;100.00;96129.53;1031920;28;20101;-52
2021/07/27 01:20:22;;;;;;;16.25;8.75;;;;;;;13.99;100.00;96131.44;1031865;28;20029;-54
2021/07/27 01:39:27;;;;;;;13.70;9.00;;;;;;;13.79;100.00;96118.09;1032609;28;20181;-53
2021/07/27 01:39:58;;;;;;;20.25;10.27;;;;;;;13.78;100.00;96126.94;1032690;28;20049;-54
2021/07/27 01:40:29;;;;;;;14.02;9.90;;;;;;;13.79;100.00;96115.47;1032608;28;20388;-53
2021/07/27 01:42:03;;;;;;;16.88;10.10;;;;;;;13.84;100.00;96119.53;1032412;28;20025;-54
2021/07/27 01:42:39;;;;;;;16.80;10.10;;;;;;;13.85;100.00;96124.69;1028345;28;20021;-53
2021/07/27 01:43:10;;;;;;;14.50;9.52;;;;;;;13.83;100.00;96118.66;1029350;28;20109;-53
2021/07/27 01:43:40;;;;;;;15.95;9.30;;;;;;;13.84;100.00;96119.53;1031720;28;20030;-53
2021/07/27 01:44:11;;;;;;;19.80;8.98;;;;;;;13.83;100.00;96118.66;1032360;28;20510;-53
2021/07/27 01:44:44;;;;;;;15.38;9.45;;;;;;;13.85;100.00;96122.03;1032325;28;20038;-52
2021/07/27 01:45:16;;;;;;;11.45;8.93;;;;;;;13.82;100.00;96119.66;1032500;28;20021;-53
2021/07/27 01:45:48;;;;;;;16.23;10.05;;;;;;;13.84;100.00;96125.63;1032647;28;20480;-53
2021/07/27 01:46:23;;;;;;;23.55;10.25;;;;;;;13.83;100.00;96118.66;1032721;28;20477;-53
2021/07/27 01:46:53;;;;;;;20.77;10.65;;;;;;;13.82;100.00;96124.09;1032472;28;20015;-53
2021/07/27 01:47:24;;;;;;;22.13;10.15;;;;;;;13.80;100.00;96121.56;1032622;28;20106;-53
2021/07/27 01:47:55;;;;;;;18.95;10.25;;;;;;;13.83;100.00;96123.09;1032621;28;20103;-53
2021/07/27 01:48:27;;;;;;;15.65;9.40;;;;;;;13.85;100.00;96121.19;1032723;28;20022;-53
2021/07/27 01:48:58;;;;;;;22.10;10.25;;;;;;;13.86;100.00;96123.69;1032445;28;20090;-53
2021/07/27 01:49:28;;;;;;;13.73;8.80;;;;;;;13.83;100.00;96125.75;1032488;28;20019;-54
2021/07/27 01:49:59;;;;;;;21.58;9.60;;;;;;;13.83;100.00;96120.47;1032650;28;20089;-53
2021/07/27 01:50:30;;;;;;;15.15;9.48;;;;;;;13.83;100.00;96126.56;1032622;28;20098;-53
2021/07/27 01:51:21;;;;;;;17.27;9.18;;;;;;;13.84;100.00;96122.16;1032473;28;20023;-53
2021/07/27 01:51:53;;;;;;;20.17;9.35;;;;;;;13.83;100.00;96118.66;1032689;28;20046;-53
2021/07/27 01:52:25;;;;;;;22.83;10.50;;;;;;;13.80;100.00;96124.19;1032425;28;20468;-52
2021/07/27 01:53:03;;;;;;;17.27;9.93;;;;;;;13.79;100.00;96119.88;1032631;28;20341;-53
2021/07/27 01:53:46;;;;;;;23.27;9.85;;;;;;;13.81;100.00;96120.59;1032007;28;20010;-52
2021/07/27 01:54:23;;;;;;;20.30;11.55;;;;;;;13.79;100.00;96125.16;1032675;28;20018;-53
2021/07/27 01:54:56;;;;;;;20.38;10.02;;;;;;;13.79;100.00;96125.16;1032595;28;20022;-53
2021/07/27 01:55:32;;;;;;;18.88;10.63;;;;;;;13.76;100.00;96125.41;1032490;28;20504;-53
2021/07/27 01:56:03;;;;;;;21.50;10.02;;;;;;;13.75;100.00;96129.81;1032564;28;20380;-54
2021/07/27 01:56:36;;;;;;;20.88;9.80;;;;;;;13.74;100.00;96125.53;1032657;28;20097;-53
2021/07/27 01:57:09;;;;;;;18.20;9.70;;;;;;;13.73;100.00;96123.84;1032448;28;20026;-52
2021/07/27 01:57:40;;;;;;;17.90;11.05;;;;;;;13.76;100.00;96125.41;1032443;28;20399;-53
2021/07/27 01:58:13;;;;;;;17.35;10.70;;;;;;;13.72;100.00;96124.81;1032535;28;20021;-52
2021/07/27 01:58:44;;;;;;;20.23;9.85;;;;;;;13.74;100.00;96128.16;1032571;28;20027;-53
2021/07/27 01:59:15;;;;;;;16.67;9.70;;;;;;;13.72;100.00;96123.97;1032386;28;20034;-53
2021/07/27 01:59:57;;;;;;;17.23;9.20;;;;;;;13.75;100.00;96119.28;1032459;28;20018;-53
2021/07/27 02:00:28;;;;;;;19.13;9.68;;;;;;;13.75;100.00;96119.28;1032567;28;20019;-53
2021/07/27 02:00:59;;;;;;;14.05;9.20;;;;;;;13.76;100.00;96115.72;1032528;28;20028;-52
2021/07/27 02:01:29;;;;;;;17.05;9.27;;;;;;;13.73;100.00;96123.00;1032445;28;20014;-53
2021/07/27 02:02:00;;;;;;;18.50;9.27;;;;;;;13.75;100.00;96118.47;1032509;28;20015;-52
2021/07/27 02:02:31;;;;;;;21.48;10.32;;;;;;;13.75;100.00;96121.09;1032529;28;20029;-53
2021/07/27 02:03:02;;;;;;;19.88;10.70;;;;;;;13.73;100.00;96118.56;1032569;28;20018;-53
2021/07/27 02:03:32;;;;;;;18.58;10.52;;;;;;;13.70;100.00;96116.22;1031916;28;20018;-52
2021/07/27 02:04:03;;;;;;;16.75;9.80;;;;;;;13.73;100.00;96117.75;1032332;28;20022;-54
2021/07/27 02:04:34;;;;;;;18.60;9.13;;;;;;;13.71;100.00;96114.41;1032687;28;20049;-53
2021/07/27 02:05:07;;;;;;;19.60;9.23;;;;;;;13.68;100.00;96115.47;1032513;28;20499;-53
2021/07/27 02:05:38;;;;;;;24.65;10.43;;;;;;;13.68;100.00;96115.47;1032570;28;20057;-53
2021/07/27 02:06:09;;;;;;;16.00;9.23;;;;;;;13.68;100.00;96120.72;1032513;28;20072;-53
2021/07/27 02:06:41;;;;;;;18.17;9.15;;;;;;;13.67;100.00;96116.44;1032644;28;20105;-54
2021/07/27 02:07:12;;;;;;;16.20;9.43;;;;;;;13.66;100.00;96120.03;1032463;28;20101;-54
2021/07/27 02:07:54;;;;;;;18.33;9.65;;;;;;;13.66;100.00;96114.75;1032550;28;20019;-53
2021/07/27 02:08:25;;;;;;;17.73;9.90;;;;;;;13.69;100.00;96113.69;1032624;28;20484;-53
2021/07/27 02:09:00;;;;;;;17.27;9.65;;;;;;;13.66;100.00;96112.13;1032551;28;20024;-54
2021/07/27 02:09:35;;;;;;;16.08;11.30;;;;;;;13.69;100.00;96111.88;1032481;28;20017;-53
2021/07/27 02:10:10;;;;;;;15.50;10.05;;;;;;;13.71;100.00;96117.88;1032409;28;20023;-52
2021/07/27 02:10:44;;;;;;;21.52;10.52;;;;;;;13.72;100.00;96111.66;1032555;28;20476;-53
2021/07/27 02:11:18;;;;;;;18.83;10.90;;;;;;;13.72;100.00;96114.28;1032451;28;20049;-53
2021/07/27 02:11:54;;;;;;;17.75;10.00;;;;;;;13.73;100.00;96112.47;1032456;28;20026;-53
2021/07/27 02:12:30;;;;;;;27.98;10.55;;;;;;;13.72;100.00;96109.03;1032504;28;20504;-53
2021/07/27 02:13:13;;;;;;;20.88;10.35;;;;;;;13.69;100.00;96108.44;1032503;28;20097;-53
2021/07/27 02:13:54;;;;;;;26.85;10.50;;;;;;;13.64;100.00;96116.69;1031908;28;20505;-53
2021/07/27 02:15:02;;;;;;;20.52;10.60;;;;;;;13.60;100.00;96115.25;1032554;28;20014;-53
2021/07/27 02:15:17;;;;;;;14.90;10.05;;;;;;;13.59;100.00;96110.97;1028204;28;20019;-54
2021/07/27 02:15:47;;;;;;;17.20;11.32;;;;;;;13.60;100.00;96115.25;1028128;28;20014;-54
2021/07/27 02:16:19;;;;;;;17.17;10.82;;;;;;;13.59;100.00;96113.59;1028097;28;20033;-54
2021/07/27 02:16:49;;;;;;;19.60;10.50;;;;;;;13.59;100.00;96114.44;1031414;28;20042;-52
2021/07/27 02:17:20;;;;;;;23.83;10.95;;;;;;;13.59;100.00;96114.44;1032379;28;20019;-53
2021/07/27 02:17:51;;;;;;;18.60;10.73;;;;;;;13.58;100.00;96118.00;1032611;28;20097;-53
2021/07/27 02:18:21;;;;;;;21.13;11.02;;;;;;;13.58;100.00;96114.53;1032394;28;20022;-54
2021/07/27 02:18:52;;;;;;;23.83;10.80;;;;;;;13.57;100.00;96112.84;1032570;28;20076;-54
2021/07/27 02:19:23;;;;;;;17.70;10.30;;;;;;;13.56;100.00;96114.66;1032427;28;20022;-53
2021/07/27 02:19:54;;;;;;;18.38;10.82;;;;;;;13.57;100.00;96115.50;1032490;28;20026;-53
2021/07/27 02:20:25;;;;;;;23.05;11.00;;;;;;;13.58;100.00;96114.53;1032424;28;20025;-53
2021/07/27 02:20:56;;;;;;;15.82;10.52;;;;;;;13.57;100.00;96113.72;1032549;28;20014;-53
2021/07/27 02:21:27;;;;;;;16.83;10.38;;;;;;;13.58;100.00;96112.75;1032509;28;20015;-52
2021/07/27 02:21:58;;;;;;;16.38;10.45;;;;;;;13.58;100.00;96114.53;1032461;28;20014;-53
2021/07/27 02:22:32;;;;;;;17.77;10.88;;;;;;;13.57;100.00;96120.75;1032300;28;20106;-53
2021/07/27 02:23:04;;;;;;;23.77;11.85;;;;;;;13.55;100.00;96113.00;1032452;28;20420;-53
2021/07/27 02:23:34;;;;;;;19.23;10.48;;;;;;;13.55;100.00;96118.28;1032032;28;20030;-53
2021/07/27 02:24:05;;;;;;;19.55;11.52;;;;;;;13.55;100.00;96115.63;1032321;28;20093;-53
2021/07/27 02:24:36;;;;;;;23.40;11.65;;;;;;;13.55;100.00;96114.78;1032288;28;20022;-52
2021/07/27 02:25:09;;;;;;;25.20;11.52;;;;;;;13.53;100.00;96117.56;1032469;28;20384;-53
2021/07/27 02:25:39;;;;;;;26.40;10.45;;;;;;;13.54;100.00;96119.22;1032463;28;20389;-53
2021/07/27 02:26:10;;;;;;;22.60;10.55;;;;;;;13.55;100.00;96117.41;1032374;28;20011;-52
2021/07/27 02:26:41;;;;;;;20.30;10.57;;;;;;;13.55;100.00;96115.63;1032388;28;20044;-53
2021/07/27 02:27:12;;;;;;;19.88;11.65;;;;;;;13.58;100.00;96122.44;1032441;28;20122;-54
2021/07/27 02:27:43;;;;;;;14.98;10.15;;;;;;;13.59;100.00;96124.97;1032429;28;20097;-53
2021/07/27 02:28:14;;;;;;;16.08;10.45;;;;;;;13.57;100.00;96120.75;1032560;28;20018;-53
2021/07/27 02:28:44;;;;;;;22.73;9.88;;;;;;;13.61;100.00;96124.84;1032289;28;20096;-54
2021/07/27 02:29:15;;;;;;;21.73;10.77;;;;;;;13.61;100.00;96117.78;1032351;28;20381;-53
2021/07/27 02:29:46;;;;;;;21.52;10.10;;;;;;;13.63;100.00;96120.28;1032497;28;20380;-52
2021/07/27 02:30:17;;;;;;;17.25;9.77;;;;;;;13.61;100.00;96117.78;1032522;28;20093;-53
2021/07/27 02:30:52;;;;;;;15.30;10.40;;;;;;;13.60;100.00;96118.72;1032344;28;20097;-52
2021/07/27 02:32:04;;;;;;;17.13;11.05;;;;;;;13.59;100.00;96116.22;1032512;28;20068;-53
2021/07/27 02:32:35;;;;;;;17.10;10.18;;;;;;;13.56;100.00;96117.28;1032070;28;20021;-53
2021/07/27 02:33:05;;;;;;;16.90;11.00;;;;;;;13.56;100.00;96116.47;1032310;28;20029;-53
2021/07/27 02:33:37;;;;;;;19.88;10.30;;;;;;;13.54;100.00;96113.94;1032047;28;20104;-53
2021/07/27 02:34:08;;;;;;;17.88;10.63;;;;;;;13.52;100.00;96112.41;1032447;28;20054;-54
2021/07/27 02:34:39;;;;;;;19.33;10.57;;;;;;;13.51;100.00;96108.91;1032497;28;20032;-53
2021/07/27 02:35:10;;;;;;;19.67;11.02;;;;;;;13.51;100.00;96111.53;1032243;28;20025;-52
2021/07/27 02:35:40;;;;;;;19.35;11.02;;;;;;;13.54;100.00;96107.84;1032301;28;20540;-53
2021/07/27 02:36:11;;;;;;;22.50;11.30;;;;;;;13.53;100.00;96109.66;1032417;28;20451;-53
2021/07/27 02:36:42;;;;;;;19.85;11.43;;;;;;;13.52;100.00;96107.16;1032539;28;20052;-52
2021/07/27 02:37:14;;;;;;;19.52;11.35;;;;;;;13.50;100.00;96109.06;1032314;28;20037;-54
2021/07/27 02:37:45;;;;;;;21.38;10.45;;;;;;;13.50;100.00;96111.69;1032968;28;20022;-52
2021/07/27 02:38:17;;;;;;;20.58;11.10;;;;;;;13.50;100.00;96115.16;1031747;28;20022;-54
2021/07/27 02:38:48;;;;;;;22.05;11.52;;;;;;;13.50;100.00;96112.53;1032378;28;20031;-53
2021/07/27 02:39:19;;;;;;;20.63;10.35;;;;;;;13.50;100.00;96114.31;1030062;28;20019;-51
2021/07/27 02:39:49;;;;;;;24.92;10.93;;;;;;;13.48;100.00;96117.06;1028619;28;20500;-53
2021/07/27 02:40:20;;;;;;;19.13;10.55;;;;;;;13.50;100.00;96119.59;1032481;28;20029;-53
2021/07/27 02:40:51;;;;;;;19.73;10.65;;;;;;;13.50;100.00;96116.97;1032515;28;20054;-54
2021/07/27 02:41:31;;;;;;;18.50;10.32;;;;;;;13.51;100.00;96121.25;1032209;28;20585;-54
2021/07/27 02:42:02;;;;;;;21.33;10.95;;;;;;;13.50;100.00;96119.59;1032433;28;20110;-53
2021/07/27 02:42:32;;;;;;;20.48;10.77;;;;;;;13.48;100.00;96122.34;1032452;28;20038;-53
2021/07/27 02:43:12;;;;;;;16.65;10.52;;;;;;;13.48;100.00;96124.16;1032338;28;20026;-53
2021/07/27 02:43:43;;;;;;;22.70;10.18;;;;;;;13.46;100.00;96124.25;1031735;28;20029;-53
2021/07/27 02:44:14;;;;;;;16.35;10.70;;;;;;;13.44;100.00;96123.56;1032471;28;20029;-54
2021/07/27 02:44:44;;;;;;;18.40;11.07;;;;;;;13.46;100.00;96126.03;1032494;28;20443;-54
2021/07/27 02:45:24;;;;;;;19.15;11.05;;;;;;;13.45;100.00;96124.38;1032326;28;20022;-54
2021/07/27 02:45:54;;;;;;;18.42;10.90;;;;;;;13.46;100.00;96126.03;1032468;28;20030;-52
2021/07/27 02:46:25;;;;;;;24.80;11.52;;;;;;;13.46;100.00;96126.03;1032367;28;20288;-54
2021/07/27 02:46:56;;;;;;;24.63;11.55;;;;;;;13.46;100.00;96120.78;1032456;28;20366;-52
2021/07/27 02:47:26;;;;;;;19.00;11.88;;;;;;;13.46;100.00;96121.63;1032314;28;20022;-53